Time;durP1;ratioP1;P1;durP2;ratioP2;P2;SDS_P1;SDS_P2;PMS_P1;PMS_P2;Temp;Humidity;BMP_temperature;BMP_pressure;BME280_temperature;BME280_humidity;BME280_pressure;Samples;Min_cycle;Max_cycle;Signal;HPM_P1;HPM_P2
2022/05/08 00:01:50;;;;;;;21.55;14.75;;;;;;;;;;5077093;28;20474;-77
2022/05/08 00:04:17;;;;;;;22.23;15.15;;;;;;;;;;5076927;28;20045;-78
2022/05/08 00:06:44;;;;;;;23.75;16.38;;;;;;;;;;5077303;28;20048;-78
2022/05/08 00:09:10;;;;;;;24.73;16.38;;;;;;;;;;5077258;28;20048;-77
2022/05/08 00:11:39;;;;;;;24.02;16.45;;;;;;;;;;5076953;28;20044;-77
2022/05/08 00:14:05;;;;;;;23.42;16.55;;;;;;;;;;5076690;28;20106;-77
2022/05/08 00:16:32;;;;;;;22.95;16.08;;;;;;;;;;5076731;28;20052;-78
2022/05/08 00:18:59;;;;;;;25.05;16.30;;;;;;;;;;5077913;28;20465;-78
2022/05/08 00:21:26;;;;;;;22.90;16.15;;;;;;;;;;5077996;28;20061;-78
2022/05/08 00:23:52;;;;;;;22.83;16.35;;;;;;;;;;5078573;28;20056;-77
2022/05/08 00:26:19;;;;;;;21.67;15.73;;;;;;;;;;5077849;28;20127;-78
2022/05/08 00:28:47;;;;;;;23.17;16.60;;;;;;;;;;5078463;28;20117;-78
2022/05/08 00:31:14;;;;;;;24.08;16.52;;;;;;;;;;5078156;28;20508;-78
2022/05/08 00:33:41;;;;;;;23.17;16.63;;;;;;;;;;5078442;28;20449;-78
2022/05/08 00:36:08;;;;;;;23.65;16.15;;;;;;;;;;5077719;28;20453;-78
2022/05/08 00:38:35;;;;;;;22.65;15.80;;;;;;;;;;5078199;28;20049;-78
2022/05/08 00:41:02;;;;;;;21.63;15.60;;;;;;;;;;5078222;28;20048;-78
2022/05/08 00:43:32;;;;;;;22.33;15.65;;;;;;;;;;5078546;28;20052;-78
2022/05/08 00:46:05;;;;;;;22.13;15.80;;;;;;;;;;5073759;28;20041;-78
2022/05/08 00:48:32;;;;;;;24.35;16.85;;;;;;;;;;5058923;28;20045;-78
2022/05/08 00:50:59;;;;;;;24.92;16.83;;;;;;;;;;5058486;28;20053;-78
2022/05/08 00:53:29;;;;;;;23.90;16.80;;;;;;;;;;5058444;28;20055;-78
2022/05/08 00:55:56;;;;;;;22.77;16.00;;;;;;;;;;5057979;28;20044;-78
2022/05/08 00:58:24;;;;;;;24.23;16.70;;;;;;;;;;5057983;28;20140;-78
2022/05/08 01:00:51;;;;;;;22.98;15.65;;;;;;;;;;5058674;28;20079;-78
2022/05/08 01:03:19;;;;;;;24.17;15.88;;;;;;;;;;5060129;28;20503;-77
2022/05/08 01:05:47;;;;;;;23.27;16.70;;;;;;;;;;5059516;28;20529;-76
2022/05/08 01:08:14;;;;;;;25.83;17.15;;;;;;;;;;5062597;28;20075;-78
2022/05/08 01:10:42;;;;;;;24.63;17.77;;;;;;;;;;5058601;28;20081;-78
2022/05/08 01:13:09;;;;;;;26.58;17.52;;;;;;;;;;5055843;28;20441;-78
2022/05/08 01:15:41;;;;;;;26.27;16.48;;;;;;;;;;5056937;28;20049;-78
2022/05/08 01:18:08;;;;;;;25.00;16.95;;;;;;;;;;5056621;28;20563;-78
2022/05/08 01:20:37;;;;;;;23.73;15.90;;;;;;;;;;5057436;28;20492;-79
2022/05/08 01:23:06;;;;;;;24.83;17.55;;;;;;;;;;5071989;28;20050;-76
2022/05/08 01:25:35;;;;;;;24.77;17.05;;;;;;;;;;5077957;28;20055;-77
2022/05/08 01:28:04;;;;;;;25.13;17.65;;;;;;;;;;5065753;28;20045;-78
2022/05/08 01:30:32;;;;;;;25.30;17.57;;;;;;;;;;5056432;28;20102;-77
2022/05/08 01:33:00;;;;;;;27.00;18.05;;;;;;;;;;5054852;28;20132;-78
2022/05/08 01:35:27;;;;;;;27.65;18.13;;;;;;;;;;5055755;28;20049;-77
2022/05/08 01:37:55;;;;;;;28.08;18.58;;;;;;;;;;5055457;28;20126;-78
2022/05/08 01:40:23;;;;;;;29.92;19.40;;;;;;;;;;5055095;28;20087;-78
2022/05/08 01:42:50;;;;;;;30.20;19.17;;;;;;;;;;5055049;28;20049;-77
2022/05/08 01:45:16;;;;;;;31.08;20.10;;;;;;;;;;5055122;28;20078;-77
2022/05/08 01:50:27;;;;;;;29.70;19.98;;;;;;;;;;5054734;28;20589;-77
2022/05/08 01:52:54;;;;;;;35.33;20.98;;;;;;;;;;5056163;28;20049;-78
2022/05/08 01:55:23;;;;;;;29.67;19.73;;;;;;;;;;5056837;28;20064;-78
2022/05/08 01:57:49;;;;;;;30.65;19.75;;;;;;;;;;5056884;28;20152;-77
2022/05/08 02:00:17;;;;;;;29.73;20.23;;;;;;;;;;5057251;28;20642;-79
2022/05/08 02:02:48;;;;;;;32.75;20.20;;;;;;;;;;5056869;28;20147;-79
2022/05/08 02:05:15;;;;;;;27.55;19.40;;;;;;;;;;5057541;28;20143;-79
2022/05/08 02:07:42;;;;;;;28.35;18.30;;;;;;;;;;5057263;28;20052;-78
2022/05/08 02:10:09;;;;;;;31.63;21.40;;;;;;;;;;5056552;28;20095;-78
2022/05/08 02:12:38;;;;;;;30.40;18.83;;;;;;;;;;5056767;28;20057;-78
2022/05/08 02:15:06;;;;;;;29.33;19.75;;;;;;;;;;5056651;28;20053;-77
2022/05/08 02:17:33;;;;;;;29.23;18.90;;;;;;;;;;5056303;28;20063;-78
2022/05/08 02:20:00;;;;;;;29.48;19.05;;;;;;;;;;5057409;28;20075;-79
2022/05/08 02:22:27;;;;;;;32.97;19.80;;;;;;;;;;5055678;28;20099;-78
2022/05/08 02:24:54;;;;;;;30.52;19.05;;;;;;;;;;5055330;28;20064;-77
2022/05/08 02:27:21;;;;;;;31.13;20.95;;;;;;;;;;5055169;28;20045;-78
2022/05/08 02:29:49;;;;;;;29.90;19.52;;;;;;;;;;5055369;28;20080;-78
2022/05/08 02:32:16;;;;;;;31.35;19.02;;;;;;;;;;5059312;28;20045;-77
2022/05/08 02:34:43;;;;;;;28.17;17.92;;;;;;;;;;5055317;28;20060;-77
2022/05/08 02:37:10;;;;;;;27.95;18.45;;;;;;;;;;5056567;28;20056;-78
2022/05/08 02:39:37;;;;;;;26.85;17.92;;;;;;;;;;5056486;28;20045;-78
2022/05/08 02:42:04;;;;;;;26.45;17.75;;;;;;;;;;5056019;28;20049;-79
2022/05/08 02:44:31;;;;;;;23.90;16.33;;;;;;;;;;5056338;28;20056;-79
2022/05/08 02:46:59;;;;;;;27.05;16.85;;;;;;;;;;5069014;28;20044;-79
2022/05/08 02:49:26;;;;;;;27.17;18.02;;;;;;;;;;5076043;28;20052;-80
2022/05/08 02:51:53;;;;;;;26.25;17.98;;;;;;;;;;5076476;28;20131;-78
2022/05/08 02:54:20;;;;;;;25.65;17.58;;;;;;;;;;5076131;28;20556;-79
2022/05/08 02:59:30;;;;;;;24.23;16.63;;;;;;;;;;5075847;28;20103;-80
2022/05/08 03:01:59;;;;;;;25.73;17.13;;;;;;;;;;5076020;28;20048;-79
2022/05/08 03:04:25;;;;;;;23.95;15.43;;;;;;;;;;5076032;28;20051;-79
2022/05/08 03:06:52;;;;;;;23.85;16.75;;;;;;;;;;5080112;28;20044;-79
2022/05/08 03:09:19;;;;;;;23.83;16.17;;;;;;;;;;5079732;28;20098;-79
2022/05/08 03:11:45;;;;;;;22.92;16.38;;;;;;;;;;5082758;28;20045;-79
2022/05/08 03:14:12;;;;;;;24.00;16.92;;;;;;;;;;5081014;28;20048;-79
2022/05/08 03:16:40;;;;;;;28.27;17.63;;;;;;;;;;5079795;28;20132;-79
2022/05/08 03:19:08;;;;;;;27.13;18.42;;;;;;;;;;5082497;28;20057;-79
2022/05/08 03:21:35;;;;;;;23.85;17.08;;;;;;;;;;5081510;28;20067;-79
2022/05/08 03:24:02;;;;;;;23.13;16.48;;;;;;;;;;5080852;28;20483;-79
2022/05/08 03:26:31;;;;;;;24.35;16.48;;;;;;;;;;5079568;28;20106;-79
2022/05/08 03:28:57;;;;;;;23.58;16.05;;;;;;;;;;5080343;28;20106;-79
2022/05/08 03:31:24;;;;;;;22.38;16.90;;;;;;;;;;5079978;28;20045;-79
2022/05/08 03:33:51;;;;;;;23.77;16.58;;;;;;;;;;5079572;28;20101;-79
2022/05/08 03:36:19;;;;;;;24.02;17.08;;;;;;;;;;5079004;28;20060;-78
2022/05/08 03:38:47;;;;;;;23.42;16.02;;;;;;;;;;5080241;28;20470;-79
2022/05/08 03:41:15;;;;;;;24.70;17.73;;;;;;;;;;5080099;28;20070;-79
2022/05/08 03:43:42;;;;;;;23.33;16.88;;;;;;;;;;5079794;28;20159;-79
2022/05/08 03:46:09;;;;;;;26.17;17.88;;;;;;;;;;5073575;28;20081;-78
2022/05/08 03:48:36;;;;;;;24.63;16.63;;;;;;;;;;5059671;28;20582;-79
2022/05/08 03:51:04;;;;;;;24.23;17.40;;;;;;;;;;5059163;28;20105;-79
2022/05/08 03:53:32;;;;;;;27.85;17.50;;;;;;;;;;5060611;28;20041;-79
2022/05/08 03:55:59;;;;;;;25.67;17.30;;;;;;;;;;5059688;28;20095;-78
2022/05/08 03:58:26;;;;;;;23.90;17.30;;;;;;;;;;5058710;28;20059;-79
2022/05/08 04:00:53;;;;;;;22.90;16.92;;;;;;;;;;5059111;28;20522;-79
2022/05/08 04:03:21;;;;;;;24.50;17.40;;;;;;;;;;5059375;28;20049;-79
2022/05/08 04:05:48;;;;;;;24.52;17.45;;;;;;;;;;5058444;28;20056;-78
2022/05/08 04:08:14;;;;;;;23.40;16.40;;;;;;;;;;5058510;28;20041;-78
2022/05/08 04:10:44;;;;;;;23.33;16.17;;;;;;;;;;5059174;28;20071;-80
2022/05/08 04:13:11;;;;;;;23.88;17.52;;;;;;;;;;5058568;28;20496;-79
2022/05/08 04:18:22;;;;;;;22.98;16.83;;;;;;;;;;5075733;28;20055;-77
2022/05/08 04:20:49;;;;;;;24.52;17.48;;;;;;;;;;5079391;28;20037;-77
2022/05/08 04:26:01;;;;;;;22.67;16.70;;;;;;;;;;5074562;28;20063;-78
2022/05/08 04:28:28;;;;;;;24.95;17.95;;;;;;;;;;5060895;28;20048;-79
2022/05/08 04:30:55;;;;;;;23.65;16.80;;;;;;;;;;5059127;28;20496;-78
2022/05/08 04:33:22;;;;;;;22.90;16.67;;;;;;;;;;5059162;28;20053;-79
2022/05/08 04:35:49;;;;;;;25.75;17.58;;;;;;;;;;5059028;28;20045;-78
2022/05/08 04:38:15;;;;;;;24.60;17.20;;;;;;;;;;5059125;28;20049;-79
2022/05/08 04:40:42;;;;;;;24.35;16.92;;;;;;;;;;5059343;28;20048;-78
2022/05/08 04:43:10;;;;;;;25.00;16.92;;;;;;;;;;5058402;28;20053;-78
2022/05/08 04:45:37;;;;;;;24.38;16.83;;;;;;;;;;5059132;28;20583;-78
2022/05/08 04:48:05;;;;;;;25.02;18.02;;;;;;;;;;5078752;28;20045;-79
2022/05/08 04:50:32;;;;;;;23.23;16.40;;;;;;;;;;5078565;28;20098;-79
2022/05/08 04:52:58;;;;;;;27.60;19.23;;;;;;;;;;5078688;28;20049;-80
2022/05/08 04:55:25;;;;;;;26.25;17.08;;;;;;;;;;5078364;28;20048;-79
2022/05/08 04:57:52;;;;;;;25.15;16.80;;;;;;;;;;5078664;28;20106;-79
2022/05/08 05:00:21;;;;;;;23.58;16.67;;;;;;;;;;5078008;28;20098;-79
2022/05/08 05:02:48;;;;;;;24.52;18.10;;;;;;;;;;5076881;28;20106;-78
2022/05/08 05:05:15;;;;;;;23.85;16.98;;;;;;;;;;5076015;28;20113;-79
2022/05/08 05:07:42;;;;;;;22.60;16.83;;;;;;;;;;5076298;28;20048;-78
2022/05/08 05:10:10;;;;;;;24.52;18.15;;;;;;;;;;5076361;28;20507;-78
2022/05/08 05:12:37;;;;;;;24.30;17.52;;;;;;;;;;5076201;28;20511;-79
2022/05/08 05:15:05;;;;;;;25.05;18.48;;;;;;;;;;5076688;28;20454;-79
2022/05/08 05:17:33;;;;;;;24.95;18.40;;;;;;;;;;5076458;28;20131;-79
2022/05/08 05:20:00;;;;;;;24.35;17.80;;;;;;;;;;5076542;28;20044;-79
2022/05/08 05:22:27;;;;;;;26.25;18.23;;;;;;;;;;5075975;28;20461;-79
2022/05/08 05:24:57;;;;;;;23.65;17.63;;;;;;;;;;5075714;28;20456;-79
2022/05/08 05:27:23;;;;;;;25.30;18.35;;;;;;;;;;5073791;28;20135;-79
2022/05/08 05:29:50;;;;;;;25.65;18.58;;;;;;;;;;5074264;28;20098;-78
2022/05/08 05:32:17;;;;;;;24.67;17.60;;;;;;;;;;5074156;28;20090;-79
2022/05/08 05:34:46;;;;;;;26.67;19.35;;;;;;;;;;5073546;28;20044;-78
2022/05/08 05:37:12;;;;;;;27.23;19.20;;;;;;;;;;5073644;28;20056;-78
2022/05/08 05:39:39;;;;;;;24.75;17.63;;;;;;;;;;5073822;28;20048;-79
2022/05/08 05:42:06;;;;;;;26.77;19.67;;;;;;;;;;5075196;28;20051;-79
2022/05/08 05:44:33;;;;;;;22.98;17.00;;;;;;;;;;5079046;28;20131;-79
2022/05/08 05:49:43;;;;;;;27.55;18.90;;;;;;;;;;5055915;28;20137;-79
2022/05/08 05:52:12;;;;;;;28.83;19.67;;;;;;;;;;5055726;28;20103;-78
2022/05/08 05:54:38;;;;;;;26.70;19.60;;;;;;;;;;5055365;28;20553;-79
2022/05/08 05:57:05;;;;;;;26.52;19.45;;;;;;;;;;5056351;28;20049;-78
2022/05/08 05:59:32;;;;;;;24.27;17.17;;;;;;;;;;5056826;28;20114;-78
2022/05/08 06:01:59;;;;;;;28.10;18.65;;;;;;;;;;5055982;28;20102;-79
2022/05/08 06:04:26;;;;;;;26.20;18.38;;;;;;;;;;5056140;28;20053;-80
2022/05/08 06:06:52;;;;;;;26.42;18.38;;;;;;;;;;5055160;28;20056;-77
2022/05/08 06:09:20;;;;;;;27.08;19.40;;;;;;;;;;5055811;28;20102;-78
2022/05/08 06:11:47;;;;;;;25.85;18.95;;;;;;;;;;5055926;28;20106;-79
2022/05/08 06:14:15;;;;;;;25.77;19.00;;;;;;;;;;5055254;28;20171;-80
2022/05/08 06:16:42;;;;;;;26.58;19.70;;;;;;;;;;5056128;28;20088;-79
2022/05/08 06:19:10;;;;;;;26.27;18.63;;;;;;;;;;5057226;28;20053;-79
2022/05/08 06:21:37;;;;;;;26.80;18.70;;;;;;;;;;5056785;28;20044;-79
2022/05/08 06:24:05;;;;;;;25.33;19.38;;;;;;;;;;5057401;28;20060;-79
2022/05/08 06:26:33;;;;;;;24.95;17.83;;;;;;;;;;5060531;28;20107;-78
2022/05/08 06:29:00;;;;;;;25.23;18.58;;;;;;;;;;5061158;28;20488;-79
2022/05/08 06:31:27;;;;;;;23.20;17.90;;;;;;;;;;5063743;28;20480;-78
2022/05/08 06:33:54;;;;;;;25.63;18.52;;;;;;;;;;5057696;28;20065;-81
2022/05/08 06:36:21;;;;;;;23.25;17.58;;;;;;;;;;5056320;28;20056;-79
2022/05/08 06:38:48;;;;;;;22.50;17.52;;;;;;;;;;5057646;28;20048;-79
2022/05/08 06:41:15;;;;;;;24.63;17.60;;;;;;;;;;5060107;28;20075;-78
2022/05/08 06:43:44;;;;;;;21.55;16.35;;;;;;;;;;5060757;28;20045;-78
2022/05/08 06:46:11;;;;;;;23.38;16.02;;;;;;;;;;5066152;28;20087;-79
2022/05/08 06:48:39;;;;;;;20.20;16.00;;;;;;;;;;5080723;28;20048;-79
2022/05/08 06:51:06;;;;;;;20.33;15.50;;;;;;;;;;5094561;28;20044;-78
2022/05/08 06:53:33;;;;;;;20.88;16.20;;;;;;;;;;5099815;28;20036;-79
2022/05/08 06:56:00;;;;;;;20.85;15.70;;;;;;;;;;5099648;28;20037;-77
2022/05/08 06:58:27;;;;;;;21.67;15.55;;;;;;;;;;5100368;28;20048;-78
2022/05/08 07:03:40;;;;;;;20.23;14.93;;;;;;;;;;5099994;28;20083;-78
2022/05/08 07:06:07;;;;;;;19.58;14.95;;;;;;;;;;5098881;28;20036;-78
2022/05/08 07:08:35;;;;;;;18.77;14.63;;;;;;;;;;5099389;28;20066;-77
2022/05/08 07:11:02;;;;;;;19.63;15.70;;;;;;;;;;5100308;28;20052;-78
2022/05/08 07:13:32;;;;;;;22.73;17.83;;;;;;;;;;5100232;28;20040;-78
2022/05/08 07:16:01;;;;;;;19.15;14.65;;;;;;;;;;5100261;28;20044;-77
2022/05/08 07:18:29;;;;;;;20.50;15.45;;;;;;;;;;5101013;28;20033;-77
2022/05/08 07:20:57;;;;;;;20.52;15.32;;;;;;;;;;5100729;28;20053;-78
2022/05/08 07:23:24;;;;;;;22.33;17.17;;;;;;;;;;5099611;28;20032;-78
2022/05/08 07:25:51;;;;;;;18.83;15.20;;;;;;;;;;5099832;28;20047;-77
2022/05/08 07:28:18;;;;;;;19.92;15.52;;;;;;;;;;5100011;28;20067;-77
2022/05/08 07:30:45;;;;;;;20.30;14.90;;;;;;;;;;5099998;28;20040;-78
2022/05/08 07:33:16;;;;;;;27.67;21.05;;;;;;;;;;5099586;28;20048;-78
2022/05/08 07:38:28;;;;;;;20.60;16.33;;;;;;;;;;5100324;28;20039;-78
2022/05/08 07:40:55;;;;;;;24.35;16.38;;;;;;;;;;5099837;28;20043;-78
2022/05/08 07:43:22;;;;;;;23.35;18.05;;;;;;;;;;5099777;28;20063;-79
2022/05/08 07:45:49;;;;;;;20.83;15.52;;;;;;;;;;5095862;28;20065;-79
2022/05/08 07:48:17;;;;;;;18.48;14.02;;;;;;;;;;5067926;28;20060;-79
2022/05/08 07:50:44;;;;;;;21.73;17.27;;;;;;;;;;5072635;28;20041;-78
2022/05/08 07:53:11;;;;;;;22.60;17.63;;;;;;;;;;5062830;28;20048;-79
2022/05/08 07:55:38;;;;;;;20.08;16.58;;;;;;;;;;5062094;28;20106;-80
2022/05/08 07:58:05;;;;;;;23.50;17.30;;;;;;;;;;5063141;28;20047;-79
2022/05/08 08:00:32;;;;;;;21.42;16.13;;;;;;;;;;5062134;28;20052;-79
2022/05/08 08:02:59;;;;;;;19.73;14.77;;;;;;;;;;5065337;28;20048;-79
2022/05/08 08:05:27;;;;;;;18.52;14.57;;;;;;;;;;5061000;28;20051;-79
2022/05/08 08:07:55;;;;;;;17.92;14.45;;;;;;;;;;5060167;28;20052;-79
2022/05/08 08:10:22;;;;;;;18.88;13.35;;;;;;;;;;5059218;28;20102;-79
2022/05/08 08:12:49;;;;;;;18.67;14.02;;;;;;;;;;5059223;28;20052;-79
2022/05/08 08:15:16;;;;;;;15.32;12.63;;;;;;;;;;5059707;28;20044;-79
2022/05/08 08:17:42;;;;;;;19.75;14.02;;;;;;;;;;5059080;28;20045;-79
2022/05/08 08:20:10;;;;;;;17.85;13.50;;;;;;;;;;5058970;28;20054;-79
2022/05/08 08:22:38;;;;;;;17.58;13.60;;;;;;;;;;5059203;28;20049;-79
2022/05/08 08:25:06;;;;;;;17.35;13.90;;;;;;;;;;5059528;28;20048;-80
2022/05/08 08:27:33;;;;;;;15.43;12.57;;;;;;;;;;5059898;28;20407;-79
2022/05/08 08:30:01;;;;;;;16.95;13.07;;;;;;;;;;5059519;28;20060;-79
2022/05/08 08:32:28;;;;;;;14.60;12.60;;;;;;;;;;5058416;28;20095;-79
2022/05/08 08:34:55;;;;;;;15.65;11.77;;;;;;;;;;5058242;28;20099;-80
2022/05/08 08:37:22;;;;;;;16.33;12.85;;;;;;;;;;5058701;28;20491;-81
2022/05/08 08:39:50;;;;;;;17.75;12.75;;;;;;;;;;5059585;28;20056;-80
2022/05/08 08:42:26;;;;;;;16.73;13.63;;;;;;;;;;5059718;28;20103;-79
2022/05/08 08:47:50;;;;;;;17.73;13.35;;;;;;;;;;5058875;28;20055;-80
2022/05/08 08:50:18;;;;;;;16.40;12.98;;;;;;;;;;5059450;28;20099;-79
2022/05/08 08:52:45;;;;;;;14.93;11.57;;;;;;;;;;5058532;28;20048;-79
2022/05/08 08:55:15;;;;;;;15.05;12.13;;;;;;;;;;5058204;28;20056;-79
2022/05/08 08:57:42;;;;;;;15.65;12.02;;;;;;;;;;5060196;28;20126;-79
2022/05/08 09:00:10;;;;;;;13.45;10.75;;;;;;;;;;5058440;28;20439;-79
2022/05/08 09:02:37;;;;;;;12.98;9.98;;;;;;;;;;5058358;28;20049;-79
2022/05/08 09:05:07;;;;;;;16.02;12.98;;;;;;;;;;5057913;28;20045;-80
2022/05/08 09:07:41;;;;;;;12.73;10.70;;;;;;;;;;5058635;28;20052;-79
2022/05/08 09:10:10;;;;;;;13.70;12.05;;;;;;;;;;5058669;28;20310;-79
2022/05/08 09:12:40;;;;;;;13.57;10.38;;;;;;;;;;5059627;28;20049;-79
2022/05/08 09:15:25;;;;;;;15.45;11.05;;;;;;;;;;5055451;28;20049;-79
2022/05/08 09:17:54;;;;;;;14.95;11.02;;;;;;;;;;5054405;28;20113;-79
2022/05/08 09:20:30;;;;;;;11.83;9.70;;;;;;;;;;5054280;28;20096;-80
2022/05/08 09:23:14;;;;;;;12.70;10.10;;;;;;;;;;5054933;28;20152;-79
2022/05/08 09:25:52;;;;;;;12.15;10.02;;;;;;;;;;5055107;28;20104;-79
2022/05/08 09:28:22;;;;;;;13.43;10.27;;;;;;;;;;5055274;28;20049;-80
2022/05/08 09:31:01;;;;;;;13.45;10.27;;;;;;;;;;5054564;28;20055;-78
2022/05/08 09:33:30;;;;;;;12.77;10.43;;;;;;;;;;5053864;28;20071;-79
2022/05/08 09:36:11;;;;;;;12.80;11.00;;;;;;;;;;5054487;28;20071;-80
2022/05/08 09:38:46;;;;;;;13.75;11.07;;;;;;;;;;5057791;28;20045;-78
2022/05/08 09:41:14;;;;;;;13.10;10.65;;;;;;;;;;5056929;28;20049;-79
2022/05/08 09:43:42;;;;;;;14.95;11.00;;;;;;;;;;5056155;28;20131;-78
2022/05/08 09:46:10;;;;;;;13.27;10.48;;;;;;;;;;5062312;28;20045;-80
2022/05/08 09:48:38;;;;;;;14.48;9.57;;;;;;;;;;5075904;28;20044;-79
2022/05/08 09:51:06;;;;;;;12.73;10.35;;;;;;;;;;5077622;28;20044;-78
2022/05/08 09:53:34;;;;;;;12.38;10.80;;;;;;;;;;5077319;28;20068;-80
2022/05/08 09:56:04;;;;;;;14.25;11.15;;;;;;;;;;5076621;28;20053;-79
2022/05/08 09:58:32;;;;;;;14.63;11.77;;;;;;;;;;5076029;28;20041;-78
2022/05/08 10:01:01;;;;;;;15.77;13.55;;;;;;;;;;5073917;28;20139;-80
2022/05/08 10:03:29;;;;;;;11.45;9.35;;;;;;;;;;5073578;28;20067;-79
2022/05/08 10:05:57;;;;;;;12.52;10.70;;;;;;;;;;5073952;28;20461;-79
2022/05/08 10:08:26;;;;;;;12.68;11.05;;;;;;;;;;5073737;28;20051;-80
2022/05/08 10:13:56;;;;;;;13.10;11.27;;;;;;;;;;5087285;28;20047;-80
2022/05/08 10:16:59;;;;;;;11.70;10.07;;;;;;;;;;5097060;28;20051;-81
2022/05/08 10:19:56;;;;;;;12.43;10.30;;;;;;;;;;5083609;28;20063;-79
2022/05/08 10:22:24;;;;;;;12.68;11.00;;;;;;;;;;5079195;28;20044;-80
2022/05/08 10:24:56;;;;;;;12.82;10.32;;;;;;;;;;5078224;28;20112;-80
2022/05/08 10:27:25;;;;;;;13.82;11.23;;;;;;;;;;5078511;28;20078;-79
2022/05/08 10:30:33;;;;;;;14.50;11.57;;;;;;;;;;5077709;28;20048;-79
2022/05/08 10:33:00;;;;;;;16.20;12.57;;;;;;;;;;5076107;28;20482;-79
2022/05/08 10:35:30;;;;;;;14.38;10.80;;;;;;;;;;5077570;28;20048;-80
2022/05/08 10:38:25;;;;;;;14.17;11.03;;;;;;;;;;5077049;28;20041;-80
2022/05/08 10:40:55;;;;;;;13.00;10.50;;;;;;;;;;5077096;28;20099;-79
2022/05/08 10:43:34;;;;;;;13.65;10.18;;;;;;;;;;5076904;28;20053;-79
2022/05/08 10:46:21;;;;;;;11.68;9.93;;;;;;;;;;5072216;28;20045;-79
2022/05/08 10:48:47;;;;;;;13.50;10.45;;;;;;;;;;5056608;28;20076;-78
2022/05/08 10:51:16;;;;;;;11.55;9.65;;;;;;;;;;5057138;28;20083;-80
2022/05/08 10:53:42;;;;;;;12.73;10.00;;;;;;;;;;5057001;28;20475;-80
2022/05/08 10:56:11;;;;;;;12.50;10.10;;;;;;;;;;5056933;28;20045;-79
2022/05/08 10:58:39;;;;;;;11.50;10.30;;;;;;;;;;5056993;28;20075;-79
2022/05/08 11:01:09;;;;;;;11.75;9.38;;;;;;;;;;5056645;28;20397;-80
2022/05/08 11:03:36;;;;;;;13.50;10.82;;;;;;;;;;5056371;28;20079;-79
2022/05/08 11:06:05;;;;;;;11.35;9.75;;;;;;;;;;5056903;28;20056;-79
2022/05/08 11:08:35;;;;;;;13.95;10.68;;;;;;;;;;5056224;28;20092;-80
2022/05/08 11:11:08;;;;;;;12.38;9.50;;;;;;;;;;5057063;28;20565;-79
2022/05/08 11:13:53;;;;;;;9.65;8.63;;;;;;;;;;5058771;28;20052;-80
2022/05/08 11:16:36;;;;;;;11.20;9.63;;;;;;;;;;5058114;28;20045;-80
2022/05/08 11:19:04;;;;;;;10.18;8.52;;;;;;;;;;5056685;28;20045;-80
2022/05/08 11:21:31;;;;;;;10.02;8.88;;;;;;;;;;5057784;28;20484;-79
2022/05/08 11:24:00;;;;;;;10.07;7.80;;;;;;;;;;5057752;28;20041;-81
2022/05/08 11:26:32;;;;;;;11.45;9.20;;;;;;;;;;5060356;28;20048;-79
2022/05/08 11:29:00;;;;;;;11.60;8.93;;;;;;;;;;5059966;28;20052;-78
2022/05/08 11:31:29;;;;;;;11.48;9.23;;;;;;;;;;5059498;28;20127;-78
2022/05/08 11:36:40;;;;;;;11.40;8.85;;;;;;;;;;5060084;28;20118;-79
2022/05/08 11:39:13;;;;;;;11.48;9.93;;;;;;;;;;5058625;28;20045;-78
2022/05/08 11:41:44;;;;;;;11.85;9.43;;;;;;;;;;5059870;28;20041;-79
2022/05/08 11:44:20;;;;;;;12.32;9.50;;;;;;;;;;5059666;28;20464;-78
2022/05/08 11:46:48;;;;;;;12.80;9.48;;;;;;;;;;5068612;28;20423;-78
2022/05/08 11:49:16;;;;;;;13.50;10.35;;;;;;;;;;5078800;28;20117;-77
2022/05/08 11:51:45;;;;;;;13.00;9.98;;;;;;;;;;5078825;28;20045;-79
2022/05/08 11:54:21;;;;;;;12.93;9.77;;;;;;;;;;5081256;28;20106;-78
2022/05/08 11:56:51;;;;;;;11.68;9.02;;;;;;;;;;5081130;28;20048;-79
2022/05/08 11:59:20;;;;;;;12.55;8.93;;;;;;;;;;5078031;28;20044;-79
2022/05/08 12:01:52;;;;;;;10.70;8.57;;;;;;;;;;5077250;28;20040;-79
2022/05/08 12:04:26;;;;;;;11.02;8.23;;;;;;;;;;5076526;28;20454;-79
2022/05/08 12:07:01;;;;;;;10.15;7.90;;;;;;;;;;5077116;28;20075;-79
2022/05/08 12:09:31;;;;;;;9.90;8.25;;;;;;;;;;5076792;28;20045;-78
2022/05/08 12:12:18;;;;;;;10.10;8.50;;;;;;;;;;5076854;28;20049;-79
2022/05/08 12:14:45;;;;;;;10.55;8.10;;;;;;;;;;5077681;28;20090;-79
2022/05/08 12:17:12;;;;;;;11.55;9.73;;;;;;;;;;5086331;28;20054;-79
2022/05/08 12:19:50;;;;;;;13.10;9.18;;;;;;;;;;5087148;28;20056;-79
2022/05/08 12:22:17;;;;;;;10.07;8.18;;;;;;;;;;5080467;28;20052;-79
2022/05/08 12:24:46;;;;;;;11.43;8.45;;;;;;;;;;5081823;28;20087;-80
2022/05/08 12:27:13;;;;;;;12.65;8.65;;;;;;;;;;5080774;28;20078;-79
2022/05/08 12:29:43;;;;;;;11.95;8.77;;;;;;;;;;5082516;28;20049;-79
2022/05/08 12:32:10;;;;;;;11.25;8.82;;;;;;;;;;5080752;28;20048;-79
2022/05/08 12:34:40;;;;;;;10.88;8.88;;;;;;;;;;5076158;28;20048;-79
2022/05/08 12:37:07;;;;;;;10.98;8.82;;;;;;;;;;5075412;28;20563;-78
2022/05/08 12:39:34;;;;;;;9.32;8.05;;;;;;;;;;5075677;28;20056;-78
2022/05/08 12:42:03;;;;;;;9.57;8.13;;;;;;;;;;5075513;28;20060;-79
2022/05/08 12:44:29;;;;;;;10.38;8.27;;;;;;;;;;5075161;28;20106;-80
2022/05/08 12:46:56;;;;;;;11.70;8.32;;;;;;;;;;5063230;28;20049;-77
2022/05/08 12:49:23;;;;;;;11.82;8.68;;;;;;;;;;5056236;28;20098;-80
2022/05/08 12:51:50;;;;;;;10.60;8.20;;;;;;;;;;5055549;28;20044;-78
2022/05/08 12:54:17;;;;;;;9.57;8.02;;;;;;;;;;5055351;28;20045;-80
2022/05/08 12:56:44;;;;;;;9.93;7.78;;;;;;;;;;5055677;28;20045;-82
2022/05/08 13:01:56;;;;;;;11.88;9.30;;;;;;;;;;5055304;28;20070;-79
2022/05/08 13:04:23;;;;;;;8.80;7.25;;;;;;;;;;5054703;28;20053;-79
2022/05/08 13:06:50;;;;;;;9.75;7.78;;;;;;;;;;5054925;28;20131;-79
2022/05/08 13:09:18;;;;;;;10.25;8.10;;;;;;;;;;5055312;28;20140;-79
2022/05/08 13:11:45;;;;;;;9.43;7.85;;;;;;;;;;5070592;28;20048;-81
2022/05/08 13:14:13;;;;;;;8.77;7.03;;;;;;;;;;5078343;28;20407;-80
2022/05/08 13:16:40;;;;;;;9.05;7.30;;;;;;;;;;5067233;28;20091;-79
2022/05/08 13:19:07;;;;;;;10.35;7.95;;;;;;;;;;5056919;28;20107;-78
2022/05/08 13:21:36;;;;;;;10.75;8.77;;;;;;;;;;5057276;28;20289;-78
2022/05/08 13:24:03;;;;;;;10.30;7.82;;;;;;;;;;5056583;28;20143;-79
2022/05/08 13:26:30;;;;;;;11.43;8.40;;;;;;;;;;5055625;28;20060;-79
2022/05/08 13:28:57;;;;;;;9.20;8.27;;;;;;;;;;5054113;28;20078;-80
2022/05/08 13:31:25;;;;;;;10.43;7.72;;;;;;;;;;5054527;28;20045;-80
2022/05/08 13:33:52;;;;;;;10.55;8.45;;;;;;;;;;5054805;28;20049;-80
2022/05/08 13:36:20;;;;;;;10.55;8.20;;;;;;;;;;5053686;28;20260;-79
2022/05/08 13:38:47;;;;;;;11.15;8.25;;;;;;;;;;5054008;28;20474;-79
2022/05/08 13:41:16;;;;;;;10.52;8.35;;;;;;;;;;5053974;28;20061;-80
2022/05/08 13:43:43;;;;;;;12.75;9.30;;;;;;;;;;5054082;28;20128;-79
2022/05/08 13:46:09;;;;;;;10.27;9.23;;;;;;;;;;5054796;28;20049;-80
2022/05/08 13:48:39;;;;;;;10.30;8.98;;;;;;;;;;5054307;28;20044;-78
2022/05/08 13:51:06;;;;;;;9.70;8.02;;;;;;;;;;5054762;28;20079;-79
2022/05/08 13:53:33;;;;;;;20.95;7.97;;;;;;;;;;5054460;28;20045;-79
2022/05/08 13:56:02;;;;;;;9.75;7.95;;;;;;;;;;5053595;28;20041;-80
2022/05/08 13:58:29;;;;;;;9.35;7.75;;;;;;;;;;5054997;28;20049;-79
2022/05/08 14:00:57;;;;;;;10.25;8.18;;;;;;;;;;5054560;28;20126;-80
2022/05/08 14:03:24;;;;;;;11.82;10.07;;;;;;;;;;5054048;28;20115;-80
2022/05/08 14:05:53;;;;;;;14.18;11.18;;;;;;;;;;5054010;28;20057;-79
2022/05/08 14:08:21;;;;;;;10.13;8.27;;;;;;;;;;5054266;28;20049;-78
2022/05/08 14:10:48;;;;;;;9.68;7.88;;;;;;;;;;5053855;28;20127;-79
2022/05/08 14:13:14;;;;;;;9.10;8.18;;;;;;;;;;5054496;28;20049;-79
2022/05/08 14:15:41;;;;;;;11.50;8.63;;;;;;;;;;5053926;28;20045;-80
2022/05/08 14:18:08;;;;;;;9.10;7.50;;;;;;;;;;5053987;28;20243;-80
2022/05/08 14:20:35;;;;;;;10.02;8.75;;;;;;;;;;5053745;28;20048;-80
2022/05/08 14:23:04;;;;;;;10.70;8.55;;;;;;;;;;5053967;28;20048;-80
2022/05/08 14:25:31;;;;;;;10.57;8.85;;;;;;;;;;5053517;28;20072;-80
2022/05/08 14:27:58;;;;;;;9.27;8.18;;;;;;;;;;5053491;28;20056;-79
2022/05/08 14:30:25;;;;;;;11.02;9.45;;;;;;;;;;5053883;28;20045;-79
2022/05/08 14:38:24;;;;;;;11.00;8.40;;;;;;;;;;5048088;28;20048;-80
2022/05/08 14:40:50;;;;;;;12.05;8.55;;;;;;;;;;5053554;28;20057;-80
2022/05/08 14:43:17;;;;;;;10.40;8.25;;;;;;;;;;5053471;28;20048;-78
2022/05/08 14:45:44;;;;;;;9.80;8.75;;;;;;;;;;5053309;28;20071;-79
2022/05/08 14:48:11;;;;;;;10.82;9.27;;;;;;;;;;5053481;28;20041;-80
2022/05/08 14:50:39;;;;;;;11.35;9.23;;;;;;;;;;5053781;28;20492;-79
2022/05/08 14:53:11;;;;;;;14.70;9.88;;;;;;;;;;5053611;28;20052;-80
2022/05/08 14:55:41;;;;;;;9.85;8.38;;;;;;;;;;5053267;28;20136;-79
2022/05/08 14:58:14;;;;;;;10.18;8.60;;;;;;;;;;5053337;28;20049;-79
2022/05/08 15:00:41;;;;;;;11.90;9.07;;;;;;;;;;5056703;28;20049;-79
2022/05/08 15:03:09;;;;;;;13.45;11.23;;;;;;;;;;5056873;28;20049;-78
2022/05/08 15:05:36;;;;;;;14.73;10.95;;;;;;;;;;5057335;28;20088;-79